Airfield :
LOGIN :

Register | Disclaimer

   EN    FR    IT 

 










Legend :    VFR   Marginal VFR   IFR   Intensive IFR   Very Intensive IFR
Visi :
Ceiling :
>= 8 km
>= 3000ft
5 to 8 km
1000 to 3000 ft
1500m to 5 km
500 to 1000 ft
800 to 1500m
200 to 500 ft
< 800m
< 200 ft
Symbols :   Thunderstorms  Fog  Heavy snow  Heavy precipitations  Wind > 20 kt
SIGMETs :     Misc.  Thunderstorms  Icing  Turbulence  Mountain Waves  Volcanic Ashes







- Airport Elevation : 202 ft
- IATA code : LGW
- Download approach charts


EGKK - London Gatwick

CURRENT METAR :
  • 250420Z 15007KT 110V180 9999 BKN015 11/09 Q0995

EXPIRED METARs :
  • 250350Z 14008KT 110V170 9999 SCT015 SCT023 10/09 Q0995
  • 250320Z 13008KT 090V150 9999 FEW009 BKN013 10/09 Q0996
  • 250250Z 11008KT 9999 SCT012 BKN042 10/08 Q0996
  • 250220Z 11010KT 9999 -RA SCT013 BKN034 10/08 Q0996
  • 250150Z 11008KT 9999 -RA FEW014 SCT032 10/09 Q0996

TAF TAF EGKK
Valid from the 25 at 00:00 until the 26 at 06:00 UTC


242255Z 2500/2606 09005KT 9999 SCT030
BECMG 2502/2505 18012KT
TEMPO 2503/2509 4000 RA SHRA BKN010
PROB40
TEMPO 2509/2518 19015G25KT 6000 SHRA BKN014CB
PROB30
TEMPO 2602/2606 6000 SHRA BKN012
No reported NOTAMs for that airfield.



MET'MAP, your aeronautical weather chart ! - Copyright ORBIFLY December 2007 - Disclaimer

ORBIFLY MET'MAP TEAM :

Programming & Development : Alexandra Zaïnal
Concept & Development : Baudouin d'Aumeries
Co-Development & Prog : Marc-Olivier Méhu
Technical & hardware support : Manuel Goepfert

Contact : metmap@orbifly.com




SOURCES & CREDITS :

   NOAA